createdAt,value
2023-12-30T00:01:55.532Z,7.02
2023-12-30T00:06:59.077Z,7.06
2023-12-30T00:12:02.424Z,7.03
2023-12-30T00:17:05.736Z,7.03
2023-12-30T00:22:09.126Z,7.03
2023-12-30T00:27:12.724Z,7.03
2023-12-30T00:32:15.974Z,7.04
2023-12-30T00:37:22.922Z,7.07
2023-12-30T00:42:26.181Z,7.12
2023-12-30T00:47:29.423Z,7.18
2023-12-30T00:52:32.667Z,7.26
2023-12-30T00:57:35.955Z,7.33
2023-12-30T01:02:39.153Z,7.40
2023-12-30T01:07:42.403Z,7.41
2023-12-30T01:12:45.877Z,7.36
2023-12-30T01:17:49.252Z,7.36
2023-12-30T01:22:52.908Z,7.29
2023-12-30T01:27:56.566Z,7.26
2023-12-30T01:33:00.126Z,7.27
2023-12-30T01:38:06.036Z,7.32
2023-12-30T01:43:32.590Z,7.35
2023-12-30T01:48:37.790Z,7.40
2023-12-30T01:53:43.404Z,7.42
2023-12-30T01:58:46.784Z,7.41
2023-12-30T02:03:51.272Z,7.44
2023-12-30T02:08:54.818Z,7.46
2023-12-30T02:13:58.102Z,7.46
2023-12-30T02:19:01.600Z,7.45
2023-12-30T02:24:05.171Z,7.40
2023-12-30T02:29:09.485Z,7.37
2023-12-30T02:34:18.924Z,7.37
2023-12-30T02:39:22.434Z,7.34
2023-12-30T02:44:25.772Z,7.34
2023-12-30T02:49:32.152Z,7.28
2023-12-30T02:54:39.143Z,7.15
2023-12-30T02:59:42.419Z,7.00
2023-12-30T03:04:45.709Z,6.87
2023-12-30T03:09:49.094Z,6.80
2023-12-30T03:14:52.650Z,6.74
2023-12-30T03:19:56.027Z,6.70
2023-12-30T03:24:59.281Z,6.65
2023-12-30T03:30:02.629Z,6.60
2023-12-30T03:35:07.864Z,6.56
2023-12-30T03:40:12.005Z,6.54
2023-12-30T03:45:15.573Z,6.54
2023-12-30T03:50:19.216Z,6.52
2023-12-30T03:55:22.695Z,6.48
2023-12-30T04:00:26.071Z,6.42
2023-12-30T04:05:29.519Z,6.37
2023-12-30T04:10:32.836Z,6.35
2023-12-30T04:15:36.215Z,6.32
2023-12-30T04:20:39.462Z,6.34
2023-12-30T04:25:42.705Z,6.36
2023-12-30T04:30:46.119Z,6.33
2023-12-30T04:35:49.393Z,6.32
2023-12-30T04:40:52.630Z,6.33
2023-12-30T04:45:55.913Z,6.33
2023-12-30T04:50:59.301Z,6.29
2023-12-30T04:56:02.662Z,6.27
2023-12-30T05:01:05.956Z,6.23
2023-12-30T05:06:09.725Z,6.16
2023-12-30T05:11:13.097Z,6.10
2023-12-30T05:16:17.137Z,6.04
2023-12-30T05:21:20.483Z,6.00
2023-12-30T05:26:23.901Z,5.96
2023-12-30T05:31:27.141Z,5.93
2023-12-30T05:36:30.464Z,5.92
2023-12-30T05:41:33.720Z,5.91
2023-12-30T05:46:37.063Z,5.85
2023-12-30T05:51:46.612Z,5.80
2023-12-30T05:56:49.851Z,5.76
2023-12-30T06:01:53.075Z,5.69
2023-12-30T06:06:56.931Z,5.67
2023-12-30T06:12:00.287Z,5.58
2023-12-30T06:17:04.497Z,5.50
2023-12-30T06:22:08.300Z,5.40
2023-12-30T06:27:12.098Z,5.31
2023-12-30T06:32:15.578Z,5.27
2023-12-30T06:37:19.052Z,5.23
2023-12-30T06:42:22.362Z,5.18
2023-12-30T06:47:25.678Z,5.13
2023-12-30T06:52:29.157Z,5.10
2023-12-30T06:57:32.600Z,5.08
2023-12-30T07:02:36.371Z,5.09
2023-12-30T07:07:39.762Z,5.13
2023-12-30T07:12:43.181Z,5.18
2023-12-30T07:17:49.378Z,5.27
2023-12-30T07:22:52.965Z,5.34
2023-12-30T07:27:56.266Z,5.46
2023-12-30T07:33:00.527Z,5.55
2023-12-30T07:38:05.050Z,5.65
2023-12-30T07:43:09.966Z,5.70
2023-12-30T07:48:14.614Z,5.77
2023-12-30T07:53:17.905Z,5.79
2023-12-30T07:58:21.229Z,5.81
2023-12-30T08:03:25.654Z,5.84
2023-12-30T08:08:28.989Z,5.86
2023-12-30T08:13:32.514Z,5.91
2023-12-30T08:18:36.416Z,5.99
2023-12-30T08:23:39.734Z,6.07
2023-12-30T08:28:43.580Z,6.09
2023-12-30T08:33:48.784Z,6.11
2023-12-30T08:38:52.107Z,6.12
2023-12-30T08:43:57.870Z,6.15
2023-12-30T08:49:01.699Z,6.21
2023-12-30T08:54:05.593Z,6.23
2023-12-30T08:59:09.109Z,6.29
2023-12-30T09:04:12.516Z,6.25
2023-12-30T09:09:15.894Z,6.29
2023-12-30T09:14:19.200Z,6.41
2023-12-30T09:19:23.415Z,6.64
2023-12-30T09:24:26.756Z,6.80
2023-12-30T09:29:30.222Z,6.86
2023-12-30T09:34:41.354Z,6.87
2023-12-30T09:39:48.488Z,6.95
2023-12-30T09:44:52.325Z,7.03
2023-12-30T09:49:57.250Z,6.95
2023-12-30T09:55:00.787Z,6.87
2023-12-30T10:00:07.010Z,6.90
2023-12-30T10:05:10.598Z,6.98
2023-12-30T10:10:13.941Z,6.94
2023-12-30T10:15:17.298Z,6.80
2023-12-30T10:20:24.642Z,6.62
2023-12-30T10:25:28.239Z,6.50
2023-12-30T10:30:32.712Z,6.59
2023-12-30T10:35:36.471Z,6.68
2023-12-30T10:40:41.483Z,6.55
2023-12-30T10:45:46.545Z,6.34
2023-12-30T10:50:54.971Z,6.15
2023-12-30T10:56:02.397Z,6.13
2023-12-30T11:01:09.016Z,6.06
2023-12-30T11:06:30.639Z,6.21
2023-12-30T11:11:34.228Z,6.33
2023-12-30T11:16:37.678Z,6.33
2023-12-30T11:21:47.863Z,6.46
2023-12-30T11:26:54.850Z,6.70
2023-12-30T11:32:00.576Z,6.79
2023-12-30T11:37:08.368Z,6.80
2023-12-30T11:42:12.860Z,6.79
2023-12-30T11:47:22.594Z,6.82
2023-12-30T11:52:25.909Z,6.69
2023-12-30T11:57:29.327Z,6.50
2023-12-30T12:02:32.732Z,6.32
2023-12-30T12:07:36.507Z,6.17
2023-12-30T12:12:46.898Z,6.09
2023-12-30T12:17:51.287Z,6.08
2023-12-30T12:22:55.981Z,6.09
2023-12-30T12:27:59.435Z,6.12
2023-12-30T12:33:03.566Z,6.18
2023-12-30T12:38:07.284Z,6.19
2023-12-30T12:43:10.865Z,6.19
2023-12-30T12:48:15.293Z,6.16
2023-12-30T12:53:18.702Z,6.00
2023-12-30T12:58:54.042Z,5.91
2023-12-30T13:03:59.877Z,5.88
2023-12-30T13:09:21.269Z,5.83
2023-12-30T13:14:28.367Z,5.80
2023-12-30T13:19:32.101Z,5.82
2023-12-30T13:24:36.218Z,5.80
2023-12-30T13:29:40.626Z,5.72
2023-12-30T13:34:45.495Z,5.72
2023-12-30T13:40:02.599Z,5.73
2023-12-30T13:45:08.419Z,5.74
2023-12-30T13:50:27.952Z,5.74
2023-12-30T13:55:36.088Z,5.74
2023-12-30T14:00:41.946Z,5.72
2023-12-30T14:05:48.894Z,5.71
2023-12-30T14:10:55.299Z,5.69
2023-12-30T14:15:59.063Z,5.66
2023-12-30T14:21:02.280Z,5.69
2023-12-30T14:26:06.081Z,5.69
2023-12-30T14:31:10.858Z,5.67
2023-12-30T14:36:14.437Z,5.68
2023-12-30T14:41:17.797Z,5.69
2023-12-30T14:46:21.812Z,5.66
2023-12-30T14:51:25.546Z,5.64
2023-12-30T14:56:29.474Z,5.59
2023-12-30T15:01:33.097Z,5.55
2023-12-30T15:06:36.601Z,5.45
2023-12-30T15:11:39.932Z,5.42
2023-12-30T15:16:43.815Z,5.37
2023-12-30T15:21:49.082Z,5.28
2023-12-30T15:26:53.544Z,5.17
2023-12-30T15:31:57.028Z,5.08
2023-12-30T15:37:00.371Z,5.02
2023-12-30T15:42:04.188Z,5.04
2023-12-30T15:47:11.099Z,5.08
2023-12-30T15:52:14.555Z,5.14
2023-12-30T15:57:17.860Z,5.21
2023-12-30T16:02:21.120Z,5.25
2023-12-30T16:07:24.491Z,5.26
2023-12-30T16:12:28.028Z,5.30
2023-12-30T16:17:31.615Z,5.35
2023-12-30T16:22:35.438Z,5.36
2023-12-30T16:27:38.756Z,5.39
2023-12-30T16:32:42.184Z,5.41
2023-12-30T16:37:46.573Z,5.41
2023-12-30T16:42:50.067Z,5.39
2023-12-30T16:47:53.946Z,5.39
2023-12-30T16:52:57.241Z,5.41
2023-12-30T16:58:00.890Z,5.46
2023-12-30T17:03:04.857Z,5.49
2023-12-30T17:08:09.320Z,5.50
2023-12-30T17:13:13.212Z,5.50
2023-12-30T17:18:16.563Z,5.49
2023-12-30T17:23:19.979Z,5.43
2023-12-30T17:28:23.336Z,5.35
2023-12-30T17:33:26.721Z,5.29
2023-12-30T17:38:30.112Z,5.32
2023-12-30T17:43:33.426Z,5.38
2023-12-30T17:48:36.945Z,5.40
2023-12-30T17:53:40.202Z,5.40
2023-12-30T17:58:43.532Z,5.40
2023-12-30T18:03:46.877Z,5.42
2023-12-30T18:08:50.444Z,5.42
2023-12-30T18:13:53.839Z,5.41
2023-12-30T18:18:57.206Z,5.38
2023-12-30T18:24:00.646Z,5.38
2023-12-30T18:29:05.044Z,5.34
2023-12-30T18:34:08.465Z,5.26
2023-12-30T18:39:11.878Z,5.20
2023-12-30T18:44:15.257Z,5.09
2023-12-30T18:49:20.849Z,4.97
2023-12-30T18:54:32.418Z,4.85
2023-12-30T18:59:35.750Z,4.80
2023-12-30T19:04:43.695Z,4.78
2023-12-30T19:09:46.997Z,4.78
2023-12-30T19:14:50.291Z,4.73
2023-12-30T19:19:53.647Z,4.62
2023-12-30T19:24:56.948Z,4.53
2023-12-30T19:30:00.583Z,4.44
2023-12-30T19:35:05.328Z,4.37
2023-12-30T19:40:09.986Z,4.31
2023-12-30T19:45:13.473Z,4.27
2023-12-30T19:50:16.964Z,4.21
2023-12-30T19:55:20.351Z,4.15
2023-12-30T20:00:25.685Z,4.09
2023-12-30T20:05:29.163Z,4.06
2023-12-30T20:10:35.372Z,3.98
2023-12-30T20:15:59.810Z,3.92
2023-12-30T20:21:06.705Z,3.86
2023-12-30T20:26:10.134Z,3.82
2023-12-30T20:31:18.483Z,3.77
2023-12-30T20:36:22.404Z,3.73
2023-12-30T20:41:25.741Z,3.67
2023-12-30T20:46:31.310Z,3.65
2023-12-30T20:51:34.797Z,3.65
2023-12-30T20:56:38.277Z,3.65
2023-12-30T21:01:42.392Z,3.64
2023-12-30T21:06:47.083Z,3.63
2023-12-30T21:11:50.411Z,3.62
2023-12-30T21:16:56.075Z,3.61
2023-12-30T21:22:02.855Z,3.60
2023-12-30T21:27:09.888Z,3.60
2023-12-30T21:32:13.216Z,3.60
2023-12-30T21:37:16.829Z,3.61
2023-12-30T21:42:20.275Z,3.61
2023-12-30T21:47:23.569Z,3.63
2023-12-30T21:52:26.809Z,3.64
2023-12-30T21:57:30.157Z,3.61
2023-12-30T22:02:35.504Z,3.59
2023-12-30T22:07:43.961Z,3.59
2023-12-30T22:12:47.432Z,3.59
2023-12-30T22:17:50.933Z,3.59
2023-12-30T22:22:54.532Z,3.55
2023-12-30T22:27:57.879Z,3.48
2023-12-30T22:33:01.821Z,3.42
2023-12-30T22:38:05.625Z,3.35
2023-12-30T22:43:13.238Z,3.28
2023-12-30T22:48:17.890Z,3.21
2023-12-30T22:53:21.244Z,3.19
2023-12-30T22:58:24.618Z,3.15
2023-12-30T23:03:28.113Z,3.10
2023-12-30T23:08:32.110Z,3.15
2023-12-30T23:13:36.160Z,3.22
2023-12-30T23:18:44.561Z,3.29
2023-12-30T23:23:48.728Z,3.37
2023-12-30T23:28:52.319Z,3.43
2023-12-30T23:33:56.489Z,3.40
2023-12-30T23:39:03.054Z,3.33
2023-12-30T23:44:06.702Z,3.26
2023-12-30T23:49:10.984Z,3.24
2023-12-30T23:54:17.293Z,3.23
